Time;durP1;ratioP1;P1;durP2;ratioP2;P2;SDS_P1;SDS_P2;PMS_P1;PMS_P2;Temp;Humidity;BMP_temperature;BMP_pressure;BME280_temperature;BME280_humidity;BME280_pressure;Samples;Min_cycle;Max_cycle;Signal;HPM_P1;HPM_P2
2024/03/27 00:00:01;;;;;;;2.70;1.90;;;;;;;;;;4973595;28;20035;-75
2024/03/27 00:02:27;;;;;;;3.63;2.05;;;;;;;;;;4973078;28;20035;-75
2024/03/27 00:04:52;;;;;;;2.75;1.70;;;;;;;;;;4955859;28;20341;-75
2024/03/27 00:07:18;;;;;;;2.63;1.80;;;;;;;;;;4973930;28;20050;-75
2024/03/27 00:09:43;;;;;;;3.20;2.28;;;;;;;;;;4976890;28;20036;-75
2024/03/27 00:12:08;;;;;;;2.90;1.80;;;;;;;;;;4966737;28;20039;-75
2024/03/27 00:14:34;;;;;;;2.63;1.83;;;;;;;;;;4973272;28;20054;-74
2024/03/27 00:16:59;;;;;;;2.97;1.92;;;;;;;;;;4973354;28;20083;-74
2024/03/27 00:19:26;;;;;;;2.60;1.80;;;;;;;;;;4973447;28;20535;-74
2024/03/27 00:21:52;;;;;;;2.28;1.88;;;;;;;;;;4972200;28;20039;-75
2024/03/27 00:24:17;;;;;;;3.05;1.80;;;;;;;;;;4972774;28;20149;-74
2024/03/27 00:26:42;;;;;;;4.10;2.00;;;;;;;;;;4972330;28;20050;-75
2024/03/27 00:29:08;;;;;;;3.28;1.88;;;;;;;;;;4969877;28;20055;-74
2024/03/27 00:31:33;;;;;;;2.95;1.92;;;;;;;;;;4960014;28;20090;-75
2024/03/27 00:33:59;;;;;;;2.97;2.00;;;;;;;;;;4973239;28;20778;-75
2024/03/27 00:36:24;;;;;;;3.15;2.17;;;;;;;;;;4972274;28;20193;-75
2024/03/27 00:38:49;;;;;;;3.67;2.20;;;;;;;;;;4973168;28;20027;-75
2024/03/27 00:41:15;;;;;;;4.03;2.03;;;;;;;;;;4972796;28;20038;-76
2024/03/27 00:43:40;;;;;;;2.72;1.80;;;;;;;;;;4970346;28;20034;-74
2024/03/27 00:46:06;;;;;;;2.95;2.05;;;;;;;;;;4972548;28;20117;-74
2024/03/27 00:48:31;;;;;;;3.53;1.92;;;;;;;;;;4972325;28;20035;-74
2024/03/27 00:50:57;;;;;;;3.22;1.90;;;;;;;;;;4971456;28;20047;-74
2024/03/27 00:53:22;;;;;;;3.28;2.30;;;;;;;;;;4971373;28;20528;-75
2024/03/27 00:56:00;;;;;;;2.97;1.90;;;;;;;;;;4974200;28;20053;-75
2024/03/27 00:58:25;;;;;;;3.15;2.30;;;;;;;;;;4967161;28;20035;-75
2024/03/27 01:00:50;;;;;;;3.40;2.15;;;;;;;;;;4963818;28;20038;-75
2024/03/27 01:03:16;;;;;;;3.03;2.10;;;;;;;;;;4977064;28;20050;-74
2024/03/27 01:05:41;;;;;;;2.28;1.65;;;;;;;;;;4976938;28;20166;-75
2024/03/27 01:08:07;;;;;;;3.10;2.10;;;;;;;;;;4960108;28;20042;-75
2024/03/27 01:10:32;;;;;;;3.58;2.28;;;;;;;;;;4978093;28;20035;-75
2024/03/27 01:12:58;;;;;;;3.67;1.98;;;;;;;;;;4978826;28;20088;-75
2024/03/27 01:15:23;;;;;;;3.00;2.10;;;;;;;;;;4977155;28;20031;-76
2024/03/27 01:17:50;;;;;;;3.25;2.10;;;;;;;;;;4975200;28;20515;-75
2024/03/27 01:20:16;;;;;;;3.40;2.20;;;;;;;;;;4972197;28;20050;-75
2024/03/27 01:22:41;;;;;;;3.78;2.10;;;;;;;;;;4970567;28;20412;-75
2024/03/27 01:25:06;;;;;;;2.85;2.17;;;;;;;;;;4972188;28;20035;-75
2024/03/27 01:27:31;;;;;;;2.50;2.10;;;;;;;;;;4969895;28;20475;-74
2024/03/27 01:29:57;;;;;;;2.95;2.13;;;;;;;;;;4971718;28;20122;-76
2024/03/27 01:32:22;;;;;;;3.15;1.92;;;;;;;;;;4971403;28;20035;-75
2024/03/27 01:34:47;;;;;;;3.08;1.98;;;;;;;;;;4955153;28;20031;-76
2024/03/27 01:37:13;;;;;;;3.05;2.10;;;;;;;;;;4972425;28;20050;-76
2024/03/27 01:39:38;;;;;;;3.90;2.03;;;;;;;;;;4971077;28;20050;-74
2024/03/27 01:42:03;;;;;;;3.88;2.05;;;;;;;;;;4970679;28;20042;-74
2024/03/27 01:44:29;;;;;;;3.38;2.00;;;;;;;;;;4971544;28;20046;-75
2024/03/27 01:46:54;;;;;;;3.47;2.38;;;;;;;;;;4957741;28;20438;-75
2024/03/27 01:49:20;;;;;;;2.78;2.05;;;;;;;;;;4970669;28;20551;-75
2024/03/27 01:51:45;;;;;;;3.35;2.28;;;;;;;;;;4970923;28;20070;-76
2024/03/27 01:54:11;;;;;;;3.08;2.00;;;;;;;;;;4970580;28;20051;-75
2024/03/27 01:56:37;;;;;;;3.13;2.17;;;;;;;;;;4953451;28;20035;-75
2024/03/27 01:59:03;;;;;;;3.00;2.08;;;;;;;;;;4948151;28;20035;-75
2024/03/27 02:01:28;;;;;;;3.45;1.92;;;;;;;;;;4971350;28;20427;-75
2024/03/27 02:03:54;;;;;;;2.88;1.83;;;;;;;;;;4959740;28;20049;-74
2024/03/27 02:06:20;;;;;;;3.20;2.22;;;;;;;;;;4953422;28;20391;-74
2024/03/27 02:08:45;;;;;;;3.08;2.20;;;;;;;;;;4936671;28;20055;-75
2024/03/27 02:11:10;;;;;;;4.10;2.05;;;;;;;;;;4966986;28;20046;-74
2024/03/27 02:13:36;;;;;;;2.30;2.00;;;;;;;;;;4951916;28;20074;-75
2024/03/27 02:16:01;;;;;;;3.20;2.08;;;;;;;;;;4953110;28;20045;-75
2024/03/27 02:18:26;;;;;;;3.35;2.30;;;;;;;;;;4968939;28;20065;-74
2024/03/27 02:20:52;;;;;;;3.00;2.08;;;;;;;;;;4966066;28;20604;-75
2024/03/27 02:23:18;;;;;;;4.22;2.17;;;;;;;;;;4970851;28;20047;-75
2024/03/27 02:26:03;;;;;;;3.55;2.30;;;;;;;;;;4953959;28;20544;-75
2024/03/27 02:28:30;;;;;;;3.60;2.30;;;;;;;;;;4939737;28;20039;-74
2024/03/27 02:30:55;;;;;;;2.70;1.98;;;;;;;;;;4979855;28;20581;-75
2024/03/27 02:33:20;;;;;;;3.00;2.22;;;;;;;;;;4965243;28;20037;-75
2024/03/27 02:35:46;;;;;;;2.75;1.98;;;;;;;;;;4967762;28;20507;-75
2024/03/27 02:38:11;;;;;;;3.08;2.20;;;;;;;;;;4970199;28;20124;-74
2024/03/27 02:40:36;;;;;;;3.30;2.17;;;;;;;;;;4959642;28;20030;-75
2024/03/27 02:43:02;;;;;;;3.03;2.20;;;;;;;;;;4947563;28;20140;-75
2024/03/27 02:45:27;;;;;;;3.63;2.33;;;;;;;;;;4971043;28;20027;-74
2024/03/27 02:47:52;;;;;;;3.47;2.40;;;;;;;;;;4965725;28;20125;-74
2024/03/27 02:50:18;;;;;;;3.30;2.30;;;;;;;;;;4966246;28;20027;-75
2024/03/27 02:52:44;;;;;;;3.42;2.08;;;;;;;;;;4958852;28;20046;-74
2024/03/27 02:55:09;;;;;;;3.67;2.20;;;;;;;;;;4960614;28;20476;-74
2024/03/27 02:57:35;;;;;;;3.25;2.38;;;;;;;;;;4957902;28;20023;-75
2024/03/27 03:00:00;;;;;;;3.15;2.10;;;;;;;;;;4953156;28;20027;-75
2024/03/27 03:02:25;;;;;;;2.80;2.15;;;;;;;;;;4952516;28;20389;-75
2024/03/27 03:04:51;;;;;;;2.95;2.17;;;;;;;;;;4970205;28;20034;-75
2024/03/27 03:07:16;;;;;;;3.63;2.38;;;;;;;;;;4970960;28;20035;-75
2024/03/27 03:09:41;;;;;;;3.08;2.30;;;;;;;;;;4969211;28;20122;-75
2024/03/27 03:12:07;;;;;;;3.00;2.08;;;;;;;;;;4941034;28;20417;-75
2024/03/27 03:14:33;;;;;;;3.03;2.20;;;;;;;;;;4966167;28;20018;-75
2024/03/27 03:16:59;;;;;;;2.63;1.90;;;;;;;;;;4967966;28;20034;-75
2024/03/27 03:19:24;;;;;;;3.22;2.15;;;;;;;;;;4952617;28;20427;-75
2024/03/27 03:21:50;;;;;;;3.47;2.45;;;;;;;;;;4970347;28;20169;-75
2024/03/27 03:24:15;;;;;;;3.03;2.20;;;;;;;;;;4969561;28;20046;-75
2024/03/27 03:26:41;;;;;;;3.80;2.15;;;;;;;;;;4969599;28;20031;-75
2024/03/27 03:29:06;;;;;;;3.00;2.30;;;;;;;;;;4966897;28;20084;-75
2024/03/27 03:31:31;;;;;;;3.33;2.42;;;;;;;;;;4962969;28;21593;-75
2024/03/27 03:33:57;;;;;;;3.05;2.30;;;;;;;;;;4964186;28;20576;-75
2024/03/27 03:36:22;;;;;;;3.05;1.95;;;;;;;;;;4953067;28;20104;-75
2024/03/27 03:38:47;;;;;;;3.20;2.20;;;;;;;;;;4969603;28;20492;-76
2024/03/27 03:41:13;;;;;;;3.33;2.20;;;;;;;;;;4970008;28;20038;-75
2024/03/27 03:43:39;;;;;;;2.90;2.10;;;;;;;;;;4968670;28;20042;-75
2024/03/27 03:46:04;;;;;;;3.58;2.10;;;;;;;;;;4967817;28;20053;-75
2024/03/27 03:48:30;;;;;;;3.17;2.28;;;;;;;;;;4951699;28;20581;-75
2024/03/27 03:50:55;;;;;;;2.95;2.10;;;;;;;;;;4950864;28;20034;-74
2024/03/27 03:53:20;;;;;;;2.95;2.13;;;;;;;;;;4969220;28;20114;-75
2024/03/27 03:55:46;;;;;;;3.25;2.13;;;;;;;;;;4968890;28;20125;-74
2024/03/27 03:58:11;;;;;;;2.78;1.90;;;;;;;;;;4969703;28;20042;-74
2024/03/27 04:00:37;;;;;;;3.00;2.20;;;;;;;;;;4952002;28;20105;-74
2024/03/27 04:03:02;;;;;;;3.75;2.35;;;;;;;;;;4952315;28;20073;-76
2024/03/27 04:05:28;;;;;;;3.72;2.42;;;;;;;;;;4968919;28;20039;-75
2024/03/27 04:07:53;;;;;;;3.72;2.20;;;;;;;;;;4968094;28;20047;-75
2024/03/27 04:10:20;;;;;;;4.10;2.13;;;;;;;;;;4963848;28;20133;-75
2024/03/27 04:12:45;;;;;;;3.13;2.05;;;;;;;;;;4954327;28;20479;-74
2024/03/27 04:15:10;;;;;;;2.92;2.17;;;;;;;;;;4951962;28;20051;-75
2024/03/27 04:17:36;;;;;;;2.85;2.00;;;;;;;;;;4952786;28;20134;-75
2024/03/27 04:20:02;;;;;;;3.47;2.38;;;;;;;;;;4969389;28;20030;-75
2024/03/27 04:22:28;;;;;;;3.03;2.30;;;;;;;;;;4942044;28;20093;-75
2024/03/27 04:24:54;;;;;;;3.70;2.42;;;;;;;;;;4952059;28;20043;-74
2024/03/27 04:27:19;;;;;;;2.90;2.20;;;;;;;;;;4967980;28;20440;-75
2024/03/27 04:29:44;;;;;;;2.97;2.10;;;;;;;;;;4968106;28;20665;-75
2024/03/27 04:32:10;;;;;;;2.40;1.92;;;;;;;;;;4958687;28;20408;-78
2024/03/27 04:34:36;;;;;;;2.78;2.05;;;;;;;;;;4965628;28;20042;-74
2024/03/27 04:37:01;;;;;;;3.00;1.80;;;;;;;;;;4968722;28;20058;-74
2024/03/27 04:39:27;;;;;;;3.88;2.15;;;;;;;;;;4968620;28;20035;-74
2024/03/27 04:41:52;;;;;;;4.10;2.17;;;;;;;;;;4969237;28;20505;-75
2024/03/27 04:44:18;;;;;;;2.80;1.80;;;;;;;;;;4968123;28;20546;-75
2024/03/27 04:46:43;;;;;;;2.47;1.77;;;;;;;;;;4964372;28;20092;-74
2024/03/27 04:49:08;;;;;;;3.38;2.20;;;;;;;;;;4972816;28;20027;-72
2024/03/27 04:51:34;;;;;;;3.45;2.10;;;;;;;;;;4972747;28;20508;-75
2024/03/27 04:53:59;;;;;;;3.45;2.13;;;;;;;;;;4972919;28;20058;-74
2024/03/27 04:56:24;;;;;;;4.03;2.30;;;;;;;;;;4968003;28;20045;-72
2024/03/27 04:58:50;;;;;;;4.00;2.25;;;;;;;;;;4984858;28;20031;-72
2024/03/27 05:01:16;;;;;;;3.15;2.10;;;;;;;;;;4981171;28;20034;-74
2024/03/27 05:03:41;;;;;;;3.70;2.05;;;;;;;;;;4983181;28;20698;-75
2024/03/27 05:06:08;;;;;;;3.42;2.05;;;;;;;;;;4976891;28;20066;-75
2024/03/27 05:08:34;;;;;;;2.83;1.80;;;;;;;;;;4974293;28;20042;-75
2024/03/27 05:10:59;;;;;;;3.13;2.28;;;;;;;;;;4969965;28;20039;-73
2024/03/27 05:13:24;;;;;;;2.85;2.00;;;;;;;;;;4965953;28;20147;-73
2024/03/27 05:15:50;;;;;;;2.88;1.92;;;;;;;;;;4972284;28;20137;-76
2024/03/27 05:18:15;;;;;;;3.17;1.88;;;;;;;;;;4940223;28;20053;-75
2024/03/27 05:20:41;;;;;;;2.70;1.90;;;;;;;;;;4973385;28;20140;-74
2024/03/27 05:23:07;;;;;;;2.70;1.90;;;;;;;;;;4968725;28;20051;-75
2024/03/27 05:25:32;;;;;;;2.75;1.90;;;;;;;;;;4950176;28;20046;-74
2024/03/27 05:27:58;;;;;;;2.63;1.95;;;;;;;;;;4971745;28;20609;-74
2024/03/27 05:30:24;;;;;;;2.63;2.00;;;;;;;;;;4971756;28;20047;-72
2024/03/27 05:32:49;;;;;;;2.15;1.60;;;;;;;;;;4972058;28;20057;-74
2024/03/27 05:35:14;;;;;;;2.17;1.50;;;;;;;;;;4971021;28;20031;-75
2024/03/27 05:37:40;;;;;;;2.97;1.90;;;;;;;;;;4972532;28;20497;-75
2024/03/27 05:40:06;;;;;;;2.97;2.00;;;;;;;;;;4953682;28;20456;-75
2024/03/27 05:42:31;;;;;;;2.58;1.60;;;;;;;;;;4967967;28;20107;-75
2024/03/27 05:44:56;;;;;;;3.80;1.60;;;;;;;;;;4962141;28;20512;-74
2024/03/27 05:47:22;;;;;;;2.20;1.60;;;;;;;;;;4964925;28;20062;-76
2024/03/27 05:49:47;;;;;;;2.33;1.70;;;;;;;;;;4964221;28;20066;-75
2024/03/27 05:52:12;;;;;;;2.45;2.00;;;;;;;;;;4961189;28;20031;-78
2024/03/27 05:54:38;;;;;;;2.30;1.85;;;;;;;;;;4946153;28;20093;-75
2024/03/27 05:57:03;;;;;;;2.25;1.63;;;;;;;;;;4955317;28;20038;-78
2024/03/27 05:59:29;;;;;;;3.65;1.77;;;;;;;;;;4964343;28;20546;-81
2024/03/27 06:01:54;;;;;;;2.35;1.63;;;;;;;;;;4971115;28;20117;-79
2024/03/27 06:04:20;;;;;;;2.38;1.70;;;;;;;;;;4949875;28;20053;-77
2024/03/27 06:06:45;;;;;;;3.58;1.83;;;;;;;;;;4970230;28;20054;-75
2024/03/27 06:09:12;;;;;;;3.38;1.88;;;;;;;;;;4965526;28;20046;-74
2024/03/27 06:11:38;;;;;;;2.45;1.63;;;;;;;;;;4966783;28;20054;-74
2024/03/27 06:14:04;;;;;;;2.53;1.55;;;;;;;;;;4967989;28;20043;-76
2024/03/27 06:16:29;;;;;;;2.53;1.73;;;;;;;;;;4947818;28;20503;-75
2024/03/27 06:18:55;;;;;;;3.03;1.80;;;;;;;;;;4963740;28;20044;-78
2024/03/27 06:21:20;;;;;;;2.00;1.60;;;;;;;;;;4981975;28;20122;-77
2024/03/27 06:23:45;;;;;;;3.90;1.70;;;;;;;;;;4963943;28;20057;-76
2024/03/27 06:26:11;;;;;;;2.58;1.70;;;;;;;;;;4951669;28;20117;-79
2024/03/27 06:28:36;;;;;;;2.25;1.60;;;;;;;;;;4953552;28;20086;-79
2024/03/27 06:31:02;;;;;;;3.33;1.70;;;;;;;;;;4964491;28;20493;-76
2024/03/27 06:33:28;;;;;;;2.78;1.70;;;;;;;;;;4971620;28;20042;-77
2024/03/27 06:35:53;;;;;;;2.65;1.70;;;;;;;;;;4970845;28;20030;-77
2024/03/27 06:38:19;;;;;;;2.13;1.52;;;;;;;;;;4954132;28;20205;-77
2024/03/27 06:40:45;;;;;;;4.20;2.00;;;;;;;;;;4925702;28;20062;-77
2024/03/27 06:43:10;;;;;;;4.32;2.22;;;;;;;;;;4969223;28;20030;-77
2024/03/27 06:45:36;;;;;;;2.97;1.80;;;;;;;;;;4947901;28;20054;-81
2024/03/27 06:48:01;;;;;;;4.07;1.80;;;;;;;;;;4969881;28;20042;-76
2024/03/27 06:50:27;;;;;;;4.22;1.83;;;;;;;;;;4974978;28;20035;-74
2024/03/27 06:52:52;;;;;;;2.08;1.48;;;;;;;;;;4967870;28;20952;-74
2024/03/27 06:55:18;;;;;;;2.70;1.55;;;;;;;;;;4968494;28;20031;-75
2024/03/27 06:57:43;;;;;;;4.80;1.80;;;;;;;;;;4969794;28;20035;-74
2024/03/27 07:00:10;;;;;;;3.67;1.85;;;;;;;;;;4970031;28;20055;-74
2024/03/27 07:02:35;;;;;;;3.95;1.63;;;;;;;;;;4969411;28;20498;-74
2024/03/27 07:05:00;;;;;;;4.47;1.80;;;;;;;;;;4950229;28;20114;-74
2024/03/27 07:07:26;;;;;;;3.60;1.90;;;;;;;;;;4970310;28;20134;-74
2024/03/27 07:09:51;;;;;;;2.60;1.70;;;;;;;;;;4953264;28;20045;-75
2024/03/27 07:12:16;;;;;;;3.28;1.48;;;;;;;;;;4952688;28;20093;-75
2024/03/27 07:14:42;;;;;;;3.55;1.65;;;;;;;;;;4952422;28;20031;-74
2024/03/27 07:17:08;;;;;;;4.80;1.85;;;;;;;;;;4969110;28;20030;-75
2024/03/27 07:19:33;;;;;;;2.78;1.65;;;;;;;;;;4969859;28;20045;-75
2024/03/27 07:21:58;;;;;;;4.25;1.90;;;;;;;;;;4969182;28;20563;-74
2024/03/27 07:24:24;;;;;;;4.22;1.77;;;;;;;;;;4969352;28;20073;-74
2024/03/27 07:26:55;;;;;;;3.15;1.80;;;;;;;;;;4969387;28;20078;-74
2024/03/27 07:29:20;;;;;;;2.45;1.80;;;;;;;;;;4952366;28;20449;-74
2024/03/27 07:31:45;;;;;;;4.20;1.75;;;;;;;;;;4948884;28;20035;-75
2024/03/27 07:34:11;;;;;;;4.93;1.75;;;;;;;;;;4970014;28;20038;-76
2024/03/27 07:36:36;;;;;;;3.20;1.98;;;;;;;;;;4972757;28;20550;-79
2024/03/27 07:39:01;;;;;;;2.60;1.88;;;;;;;;;;4960520;28;20035;-78
2024/03/27 07:41:27;;;;;;;3.30;1.85;;;;;;;;;;4952278;28;20067;-76
2024/03/27 07:43:52;;;;;;;2.50;1.60;;;;;;;;;;4952321;28;20078;-74
2024/03/27 07:46:17;;;;;;;4.57;1.88;;;;;;;;;;4959104;28;20035;-73
2024/03/27 07:48:44;;;;;;;4.00;1.80;;;;;;;;;;4958759;28;20118;-76
2024/03/27 07:51:09;;;;;;;3.05;1.90;;;;;;;;;;4948483;28;20508;-75
2024/03/27 07:53:35;;;;;;;2.30;1.40;;;;;;;;;;4965131;28;20134;-76
2024/03/27 07:56:03;;;;;;;2.92;1.70;;;;;;;;;;4968523;28;20035;-76
2024/03/27 07:58:28;;;;;;;3.33;1.60;;;;;;;;;;4940684;28;20035;-75
2024/03/27 08:00:54;;;;;;;3.13;1.80;;;;;;;;;;4931402;29;20039;-75
2024/03/27 08:03:19;;;;;;;2.88;1.67;;;;;;;;;;4933255;29;20043;-75
2024/03/27 08:05:44;;;;;;;3.00;1.63;;;;;;;;;;4928174;29;20539;-76
2024/03/27 08:08:10;;;;;;;3.42;1.80;;;;;;;;;;4937342;28;20048;-77
2024/03/27 08:10:39;;;;;;;2.80;1.88;;;;;;;;;;4948969;28;20050;-76
2024/03/27 08:13:05;;;;;;;2.28;1.65;;;;;;;;;;4968436;28;20046;-76
2024/03/27 08:15:30;;;;;;;2.60;1.60;;;;;;;;;;4967012;28;20043;-75
2024/03/27 08:17:56;;;;;;;2.63;1.77;;;;;;;;;;4965797;28;20034;-76
2024/03/27 08:20:22;;;;;;;3.70;1.77;;;;;;;;;;4942274;28;20440;-76
2024/03/27 08:22:47;;;;;;;2.22;1.83;;;;;;;;;;4940669;28;20051;-76
2024/03/27 08:25:12;;;;;;;3.38;2.00;;;;;;;;;;4941543;29;20058;-76
2024/03/27 08:27:38;;;;;;;2.72;1.35;;;;;;;;;;4940134;28;20051;-76
2024/03/27 08:30:04;;;;;;;3.25;1.80;;;;;;;;;;4940549;29;20035;-76
2024/03/27 08:32:30;;;;;;;3.08;1.73;;;;;;;;;;4924603;29;20035;-76
2024/03/27 08:34:55;;;;;;;2.42;1.60;;;;;;;;;;4952899;28;20035;-76
2024/03/27 08:37:21;;;;;;;2.90;1.58;;;;;;;;;;4959807;28;20504;-76
2024/03/27 08:39:46;;;;;;;3.03;1.90;;;;;;;;;;4960852;28;20412;-76
2024/03/27 08:42:12;;;;;;;3.03;1.98;;;;;;;;;;4963480;28;20031;-75
2024/03/27 08:44:37;;;;;;;2.88;1.75;;;;;;;;;;4942565;28;20043;-76
2024/03/27 08:47:04;;;;;;;2.58;1.70;;;;;;;;;;4940850;28;20409;-75
2024/03/27 08:49:29;;;;;;;2.58;1.58;;;;;;;;;;4941192;28;20051;-76
2024/03/27 08:51:54;;;;;;;2.45;1.58;;;;;;;;;;4939749;28;20042;-75
2024/03/27 08:54:20;;;;;;;2.83;1.80;;;;;;;;;;4938458;28;20401;-76
2024/03/27 08:56:45;;;;;;;2.58;1.50;;;;;;;;;;4942485;28;20500;-76
2024/03/27 08:59:10;;;;;;;2.60;1.65;;;;;;;;;;4959580;28;20043;-75
2024/03/27 09:01:36;;;;;;;3.15;1.80;;;;;;;;;;4942267;28;20030;-75
2024/03/27 09:04:01;;;;;;;3.92;2.08;;;;;;;;;;4960025;28;20050;-76
2024/03/27 09:06:26;;;;;;;3.00;1.83;;;;;;;;;;4942501;28;20043;-76
2024/03/27 09:08:52;;;;;;;2.67;1.90;;;;;;;;;;4959320;28;20042;-75
2024/03/27 09:11:17;;;;;;;3.67;1.70;;;;;;;;;;4957410;28;20073;-75
2024/03/27 09:13:42;;;;;;;2.83;1.70;;;;;;;;;;4959812;28;20122;-76
2024/03/27 09:16:08;;;;;;;3.85;1.50;;;;;;;;;;4959612;28;20050;-76
2024/03/27 09:18:34;;;;;;;2.25;1.73;;;;;;;;;;4925990;28;20026;-76
2024/03/27 09:21:00;;;;;;;2.47;1.70;;;;;;;;;;4942344;28;20078;-76
2024/03/27 09:23:25;;;;;;;2.88;1.73;;;;;;;;;;4942302;28;20041;-76
2024/03/27 09:25:54;;;;;;;2.85;1.80;;;;;;;;;;4940889;28;20039;-76
2024/03/27 09:28:20;;;;;;;2.53;1.77;;;;;;;;;;4940782;28;20069;-76
2024/03/27 09:30:45;;;;;;;3.65;1.60;;;;;;;;;;4942811;28;20035;-77
2024/03/27 09:33:11;;;;;;;2.88;1.70;;;;;;;;;;4961314;28;20043;-76
2024/03/27 09:35:36;;;;;;;2.72;1.60;;;;;;;;;;4946701;28;20042;-76
2024/03/27 09:38:02;;;;;;;2.58;1.70;;;;;;;;;;4971394;28;20041;-76
2024/03/27 09:40:28;;;;;;;2.70;1.75;;;;;;;;;;4961469;28;20035;-76
2024/03/27 09:42:53;;;;;;;2.30;1.40;;;;;;;;;;4969271;28;20050;-76
2024/03/27 09:45:18;;;;;;;2.97;1.88;;;;;;;;;;4961595;28;20562;-76
2024/03/27 09:47:44;;;;;;;2.78;1.73;;;;;;;;;;4969708;28;20070;-76
2024/03/27 09:50:09;;;;;;;2.83;1.70;;;;;;;;;;4945261;29;20054;-76
2024/03/27 09:52:36;;;;;;;2.83;1.83;;;;;;;;;;4967087;28;20105;-76
2024/03/27 09:55:01;;;;;;;2.20;1.40;;;;;;;;;;4966463;28;20031;-75
2024/03/27 09:57:26;;;;;;;2.85;1.50;;;;;;;;;;4969525;28;20423;-75
2024/03/27 09:59:52;;;;;;;3.05;1.70;;;;;;;;;;4969155;28;20030;-77
2024/03/27 10:02:17;;;;;;;2.60;1.42;;;;;;;;;;4959459;28;20481;-72
2024/03/27 10:04:42;;;;;;;11.48;3.60;;;;;;;;;;4956144;28;20109;-74
2024/03/27 10:07:09;;;;;;;5.07;2.50;;;;;;;;;;4944448;28;20069;-73
2024/03/27 10:09:35;;;;;;;3.97;2.10;;;;;;;;;;4964072;28;20039;-74
2024/03/27 10:12:00;;;;;;;4.15;2.10;;;;;;;;;;4958950;28;20034;-74
2024/03/27 10:14:25;;;;;;;4.03;1.80;;;;;;;;;;4946910;28;20042;-74
2024/03/27 10:16:51;;;;;;;3.45;1.98;;;;;;;;;;4941175;28;20023;-74
2024/03/27 10:19:16;;;;;;;3.05;1.52;;;;;;;;;;4958028;28;20039;-75
2024/03/27 10:21:41;;;;;;;4.47;1.83;;;;;;;;;;4958420;28;20027;-76
2024/03/27 10:24:07;;;;;;;3.63;2.00;;;;;;;;;;4959096;28;20453;-74
2024/03/27 10:26:33;;;;;;;3.83;2.10;;;;;;;;;;4942784;28;20043;-74
2024/03/27 10:28:58;;;;;;;4.85;1.70;;;;;;;;;;4959504;28;20142;-74
2024/03/27 10:31:24;;;;;;;2.83;1.85;;;;;;;;;;4963680;28;20412;-75
2024/03/27 10:33:49;;;;;;;3.10;1.90;;;;;;;;;;4961199;28;20038;-74
2024/03/27 10:36:24;;;;;;;2.42;1.55;;;;;;;;;;4941442;28;20584;-74
2024/03/27 10:38:52;;;;;;;8.27;2.90;;;;;;;;;;4954888;28;20049;-72
2024/03/27 10:41:17;;;;;;;5.93;2.65;;;;;;;;;;4956821;28;20042;-72
2024/03/27 10:43:43;;;;;;;9.77;3.55;;;;;;;;;;4955845;28;20043;-72
2024/03/27 10:46:09;;;;;;;11.40;3.33;;;;;;;;;;4956830;28;20045;-72
2024/03/27 10:48:36;;;;;;;8.05;3.70;;;;;;;;;;4938473;28;20061;-71
2024/03/27 10:51:02;;;;;;;8.43;3.33;;;;;;;;;;4955100;28;20042;-73
2024/03/27 10:53:27;;;;;;;7.78;3.47;;;;;;;;;;4958488;28;20039;-74
2024/03/27 10:55:52;;;;;;;8.23;3.15;;;;;;;;;;4962471;28;20098;-74
2024/03/27 10:58:18;;;;;;;9.18;3.20;;;;;;;;;;4945926;28;20550;-73
2024/03/27 11:00:43;;;;;;;9.48;3.28;;;;;;;;;;4943009;28;20112;-74
2024/03/27 11:03:08;;;;;;;10.35;3.50;;;;;;;;;;4959188;28;20065;-73
2024/03/27 11:05:34;;;;;;;8.43;3.58;;;;;;;;;;4959412;28;21539;-74
2024/03/27 11:07:59;;;;;;;8.93;3.50;;;;;;;;;;4943006;28;20037;-75
2024/03/27 11:10:25;;;;;;;12.15;3.97;;;;;;;;;;4945075;28;20081;-73
2024/03/27 11:12:50;;;;;;;11.40;4.18;;;;;;;;;;4958027;28;20011;-73
2024/03/27 11:15:16;;;;;;;11.70;4.07;;;;;;;;;;4963243;28;20019;-74
2024/03/27 11:17:51;;;;;;;13.75;4.47;;;;;;;;;;4959166;28;20018;-73
2024/03/27 11:20:16;;;;;;;18.10;4.25;;;;;;;;;;4958790;28;20022;-74
2024/03/27 11:22:47;;;;;;;10.73;5.40;;;;;;;;;;4960977;28;20007;-71
2024/03/27 11:25:13;;;;;;;10.32;4.65;;;;;;;;;;4954951;28;20156;-74
2024/03/27 11:27:38;;;;;;;13.85;5.18;;;;;;;;;;4948760;28;20090;-75
2024/03/27 11:30:04;;;;;;;8.15;3.53;;;;;;;;;;4960552;28;20054;-75
2024/03/27 11:32:33;;;;;;;6.43;3.10;;;;;;;;;;4959222;28;20042;-76
2024/03/27 11:34:58;;;;;;;10.13;3.58;;;;;;;;;;4945945;28;20035;-76
2024/03/27 11:37:24;;;;;;;7.78;3.97;;;;;;;;;;4944264;28;20035;-76
2024/03/27 11:39:49;;;;;;;8.23;3.60;;;;;;;;;;4960618;28;20031;-77
2024/03/27 11:42:15;;;;;;;8.60;3.55;;;;;;;;;;4961938;28;20178;-73
2024/03/27 11:44:41;;;;;;;12.15;3.67;;;;;;;;;;4959679;28;20118;-73
2024/03/27 11:47:07;;;;;;;6.63;3.22;;;;;;;;;;4955227;28;20205;-74
2024/03/27 11:49:32;;;;;;;8.68;2.83;;;;;;;;;;4940935;28;20035;-74
2024/03/27 11:51:57;;;;;;;6.13;2.70;;;;;;;;;;4928602;28;20439;-76
2024/03/27 11:54:26;;;;;;;7.95;2.78;;;;;;;;;;4927663;28;20047;-74
2024/03/27 11:56:52;;;;;;;6.80;3.13;;;;;;;;;;4962553;28;20061;-74
2024/03/27 11:59:18;;;;;;;8.85;3.25;;;;;;;;;;4968344;28;20126;-74
2024/03/27 12:01:43;;;;;;;9.57;2.63;;;;;;;;;;4947988;28;20050;-74
2024/03/27 12:04:08;;;;;;;8.10;3.00;;;;;;;;;;4946032;28;20053;-73
2024/03/27 12:06:34;;;;;;;11.38;2.90;;;;;;;;;;4946779;28;20054;-74
2024/03/27 12:09:00;;;;;;;5.63;2.45;;;;;;;;;;4964266;28;20049;-75
2024/03/27 12:11:25;;;;;;;5.45;2.83;;;;;;;;;;4943061;28;20036;-76
2024/03/27 12:13:50;;;;;;;5.68;2.70;;;;;;;;;;4932244;29;20603;-75
2024/03/27 12:16:16;;;;;;;5.63;2.33;;;;;;;;;;4944070;29;20067;-75
2024/03/27 12:18:44;;;;;;;6.85;2.88;;;;;;;;;;4971501;28;20035;-76
2024/03/27 12:21:10;;;;;;;7.78;2.95;;;;;;;;;;4951919;28;20133;-75
2024/03/27 12:23:38;;;;;;;6.68;2.78;;;;;;;;;;4950728;28;20043;-77
2024/03/27 12:26:03;;;;;;;5.43;2.60;;;;;;;;;;4947258;28;20049;-75
2024/03/27 12:28:29;;;;;;;6.50;2.53;;;;;;;;;;4963018;28;20039;-75
2024/03/27 12:30:59;;;;;;;4.47;2.38;;;;;;;;;;4963327;28;20174;-75
2024/03/27 12:33:25;;;;;;;5.10;2.45;;;;;;;;;;4943665;28;20037;-76
2024/03/27 12:35:51;;;;;;;7.43;2.67;;;;;;;;;;4943176;28;20127;-76
2024/03/27 12:38:17;;;;;;;5.28;2.20;;;;;;;;;;4949317;28;20523;-76
2024/03/27 12:40:43;;;;;;;7.75;2.60;;;;;;;;;;4960486;28;20047;-76
2024/03/27 12:43:09;;;;;;;5.03;2.67;;;;;;;;;;4966149;28;20035;-76
2024/03/27 12:45:34;;;;;;;4.55;2.35;;;;;;;;;;4968289;28;20599;-76
2024/03/27 12:48:00;;;;;;;6.40;2.65;;;;;;;;;;4966279;28;20047;-76
2024/03/27 12:50:26;;;;;;;5.15;2.45;;;;;;;;;;4945407;28;20567;-76
2024/03/27 12:52:51;;;;;;;5.78;2.80;;;;;;;;;;4950293;28;20027;-76
2024/03/27 12:55:17;;;;;;;5.35;2.50;;;;;;;;;;4961630;28;20043;-76
2024/03/27 12:57:43;;;;;;;5.50;2.80;;;;;;;;;;4961263;28;20046;-77
2024/03/27 13:00:08;;;;;;;6.70;2.90;;;;;;;;;;4943385;28;20542;-76
2024/03/27 13:02:34;;;;;;;6.32;2.50;;;;;;;;;;4961030;28;20547;-77
2024/03/27 13:04:59;;;;;;;6.10;2.55;;;;;;;;;;4958977;28;20031;-76
2024/03/27 13:07:24;;;;;;;5.07;2.70;;;;;;;;;;4960449;28;20097;-74
2024/03/27 13:09:49;;;;;;;6.43;2.63;;;;;;;;;;4959642;28;20935;-73
2024/03/27 13:12:15;;;;;;;7.28;3.10;;;;;;;;;;4940484;28;20054;-73
2024/03/27 13:14:40;;;;;;;15.63;4.88;;;;;;;;;;4960214;28;20031;-76
2024/03/27 13:17:05;;;;;;;10.90;4.20;;;;;;;;;;4961715;28;20062;-75
2024/03/27 13:19:31;;;;;;;10.73;4.38;;;;;;;;;;4961572;28;20475;-75
2024/03/27 13:21:56;;;;;;;10.30;4.60;;;;;;;;;;4957736;28;20045;-76
2024/03/27 13:24:21;;;;;;;18.27;5.20;;;;;;;;;;4964864;28;20036;-76
2024/03/27 13:26:47;;;;;;;18.83;6.10;;;;;;;;;;4965320;28;20046;-76
2024/03/27 13:29:12;;;;;;;21.35;6.38;;;;;;;;;;4974648;28;20108;-77
2024/03/27 13:31:38;;;;;;;17.88;6.13;;;;;;;;;;4979919;28;20045;-76
2024/03/27 13:34:05;;;;;;;24.88;7.18;;;;;;;;;;4978034;28;20065;-76
2024/03/27 13:36:31;;;;;;;19.13;6.97;;;;;;;;;;4977221;28;20038;-75
2024/03/27 13:38:56;;;;;;;21.08;6.57;;;;;;;;;;4955177;28;20597;-76
2024/03/27 13:41:21;;;;;;;20.98;6.78;;;;;;;;;;4960106;28;20136;-76
2024/03/27 13:43:47;;;;;;;24.83;6.93;;;;;;;;;;4973962;28;20037;-75
2024/03/27 13:46:13;;;;;;;24.50;6.97;;;;;;;;;;4968640;28;20042;-76
2024/03/27 13:48:39;;;;;;;21.42;6.80;;;;;;;;;;4955888;28;20109;-75
2024/03/27 13:51:04;;;;;;;19.02;6.75;;;;;;;;;;4958502;28;20516;-75
2024/03/27 13:53:29;;;;;;;19.50;6.38;;;;;;;;;;4939559;28;20098;-76
2024/03/27 13:55:55;;;;;;;27.58;6.15;;;;;;;;;;4974319;28;20035;-75
2024/03/27 13:58:20;;;;;;;19.73;6.13;;;;;;;;;;4973343;28;20082;-74
2024/03/27 14:00:46;;;;;;;22.58;6.78;;;;;;;;;;4944424;29;20101;-75
2024/03/27 14:03:11;;;;;;;21.85;6.28;;;;;;;;;;4973819;28;20062;-75
2024/03/27 14:05:36;;;;;;;21.75;6.32;;;;;;;;;;4970528;28;20451;-75
2024/03/27 14:08:04;;;;;;;18.77;6.05;;;;;;;;;;4961988;28;20090;-76
2024/03/27 14:10:30;;;;;;;20.80;6.50;;;;;;;;;;4976146;28;20035;-75
2024/03/27 14:12:55;;;;;;;15.57;5.97;;;;;;;;;;4968280;28;20436;-75
2024/03/27 14:15:20;;;;;;;16.45;5.88;;;;;;;;;;4959738;28;20055;-76
2024/03/27 14:17:46;;;;;;;20.17;6.15;;;;;;;;;;4971774;28;20038;-75
2024/03/27 14:20:12;;;;;;;17.73;5.82;;;;;;;;;;4973846;28;20039;-76
2024/03/27 14:22:39;;;;;;;18.13;5.72;;;;;;;;;;4974373;28;20058;-75
2024/03/27 14:25:05;;;;;;;14.25;5.35;;;;;;;;;;4972650;28;20034;-74
2024/03/27 14:27:30;;;;;;;17.88;5.70;;;;;;;;;;4963179;28;20527;-75
2024/03/27 14:29:55;;;;;;;16.30;5.75;;;;;;;;;;4971982;28;20039;-75